sensor_id;sensor_type;location;lat;lon;timestamp;P1;durP1;ratioP1;P2;durP2;ratioP2
17372;SDS011;8803;48.116;11.590;2022-12-07T00:00:49;11.77;;;9.10;;
17372;SDS011;8803;48.116;11.590;2022-12-07T00:02:53;12.37;;;9.60;;
17372;SDS011;8803;48.116;11.590;2022-12-07T00:05:07;10.37;;;8.83;;
17372;SDS011;8803;48.116;11.590;2022-12-07T00:07:10;10.77;;;9.67;;
17372;SDS011;8803;48.116;11.590;2022-12-07T00:09:15;12.07;;;9.40;;
17372;SDS011;8803;48.116;11.590;2022-12-07T00:11:20;10.37;;;8.77;;
17372;SDS011;8803;48.116;11.590;2022-12-07T00:13:36;10.77;;;8.60;;
17372;SDS011;8803;48.116;11.590;2022-12-07T00:15:41;9.13;;;8.20;;
17372;SDS011;8803;48.116;11.590;2022-12-07T00:17:44;10.33;;;8.50;;
17372;SDS011;8803;48.116;11.590;2022-12-07T00:19:48;9.67;;;7.80;;
17372;SDS011;8803;48.116;11.590;2022-12-07T00:21:52;11.73;;;8.10;;
17372;SDS011;8803;48.116;11.590;2022-12-07T00:23:56;9.93;;;8.53;;
17372;SDS011;8803;48.116;11.590;2022-12-07T00:26:04;9.33;;;8.30;;
17372;SDS011;8803;48.116;11.590;2022-12-07T00:28:19;10.53;;;7.93;;
17372;SDS011;8803;48.116;11.590;2022-12-07T00:30:23;9.77;;;7.80;;
17372;SDS011;8803;48.116;11.590;2022-12-07T00:32:26;8.47;;;7.57;;
17372;SDS011;8803;48.116;11.590;2022-12-07T00:34:39;8.40;;;7.23;;
17372;SDS011;8803;48.116;11.590;2022-12-07T00:36:43;7.87;;;7.07;;
17372;SDS011;8803;48.116;11.590;2022-12-07T00:38:57;8.40;;;7.20;;
17372;SDS011;8803;48.116;11.590;2022-12-07T00:41:03;7.60;;;6.80;;
17372;SDS011;8803;48.116;11.590;2022-12-07T00:43:18;7.93;;;6.97;;
17372;SDS011;8803;48.116;11.590;2022-12-07T00:45:22;8.77;;;7.87;;
17372;SDS011;8803;48.116;11.590;2022-12-07T00:47:26;8.50;;;7.57;;
17372;SDS011;8803;48.116;11.590;2022-12-07T00:51:41;8.13;;;7.30;;
17372;SDS011;8803;48.116;11.590;2022-12-07T00:53:44;10.07;;;7.70;;
17372;SDS011;8803;48.116;11.590;2022-12-07T00:55:57;8.50;;;7.20;;
17372;SDS011;8803;48.116;11.590;2022-12-07T00:58:02;8.80;;;7.47;;
17372;SDS011;8803;48.116;11.590;2022-12-07T01:00:08;7.33;;;6.63;;
17372;SDS011;8803;48.116;11.590;2022-12-07T01:02:21;8.40;;;7.07;;
17372;SDS011;8803;48.116;11.590;2022-12-07T01:04:25;7.77;;;6.97;;
17372;SDS011;8803;48.116;11.590;2022-12-07T01:06:29;10.00;;;7.40;;
17372;SDS011;8803;48.116;11.590;2022-12-07T01:08:33;8.27;;;7.47;;
17372;SDS011;8803;48.116;11.590;2022-12-07T01:10:37;8.53;;;7.10;;
17372;SDS011;8803;48.116;11.590;2022-12-07T01:12:50;9.27;;;7.23;;
17372;SDS011;8803;48.116;11.590;2022-12-07T01:14:53;7.27;;;6.53;;
17372;SDS011;8803;48.116;11.590;2022-12-07T01:16:57;7.97;;;6.63;;
17372;SDS011;8803;48.116;11.590;2022-12-07T01:19:10;9.87;;;7.43;;
17372;SDS011;8803;48.116;11.590;2022-12-07T01:21:14;7.53;;;6.57;;
17372;SDS011;8803;48.116;11.590;2022-12-07T01:23:19;7.27;;;6.53;;
17372;SDS011;8803;48.116;11.590;2022-12-07T01:25:32;6.83;;;6.13;;
17372;SDS011;8803;48.116;11.590;2022-12-07T01:27:36;7.23;;;6.33;;
17372;SDS011;8803;48.116;11.590;2022-12-07T01:29:40;8.00;;;7.20;;
17372;SDS011;8803;48.116;11.590;2022-12-07T01:31:52;8.10;;;7.30;;
17372;SDS011;8803;48.116;11.590;2022-12-07T01:33:58;7.13;;;6.43;;
17372;SDS011;8803;48.116;11.590;2022-12-07T01:36:13;8.13;;;7.33;;
17372;SDS011;8803;48.116;11.590;2022-12-07T01:38:18;7.87;;;6.60;;
17372;SDS011;8803;48.116;11.590;2022-12-07T01:40:31;7.80;;;6.30;;
17372;SDS011;8803;48.116;11.590;2022-12-07T01:42:35;7.23;;;6.47;;
17372;SDS011;8803;48.116;11.590;2022-12-07T01:47:35;7.97;;;6.73;;
17372;SDS011;8803;48.116;11.590;2022-12-07T01:51:51;7.73;;;6.60;;
17372;SDS011;8803;48.116;11.590;2022-12-07T01:53:58;7.63;;;6.83;;
17372;SDS011;8803;48.116;11.590;2022-12-07T01:56:03;7.23;;;6.33;;
17372;SDS011;8803;48.116;11.590;2022-12-07T01:58:10;7.33;;;6.33;;
17372;SDS011;8803;48.116;11.590;2022-12-07T02:00:16;8.30;;;7.10;;
17372;SDS011;8803;48.116;11.590;2022-12-07T02:02:30;8.93;;;7.00;;
17372;SDS011;8803;48.116;11.590;2022-12-07T02:04:36;7.40;;;6.70;;
17372;SDS011;8803;48.116;11.590;2022-12-07T02:06:40;9.30;;;7.67;;
17372;SDS011;8803;48.116;11.590;2022-12-07T02:08:53;8.23;;;6.93;;
17372;SDS011;8803;48.116;11.590;2022-12-07T02:13:09;8.73;;;7.27;;
17372;SDS011;8803;48.116;11.590;2022-12-07T02:15:15;8.90;;;7.80;;
17372;SDS011;8803;48.116;11.590;2022-12-07T02:17:22;7.90;;;7.10;;
17372;SDS011;8803;48.116;11.590;2022-12-07T02:21:48;7.40;;;6.40;;
17372;SDS011;8803;48.116;11.590;2022-12-07T02:26:49;7.37;;;6.10;;
17372;SDS011;8803;48.116;11.590;2022-12-07T02:29:27;8.60;;;6.67;;
17372;SDS011;8803;48.116;11.590;2022-12-07T02:31:46;7.77;;;6.97;;
17372;SDS011;8803;48.116;11.590;2022-12-07T02:33:54;8.10;;;6.67;;
17372;SDS011;8803;48.116;11.590;2022-12-07T02:36:00;7.70;;;6.90;;
17372;SDS011;8803;48.116;11.590;2022-12-07T02:38:08;8.30;;;6.50;;
17372;SDS011;8803;48.116;11.590;2022-12-07T02:40:15;7.40;;;6.70;;
17372;SDS011;8803;48.116;11.590;2022-12-07T02:42:31;7.47;;;6.77;;
17372;SDS011;8803;48.116;11.590;2022-12-07T02:44:37;7.07;;;6.37;;
17372;SDS011;8803;48.116;11.590;2022-12-07T02:46:42;7.40;;;6.60;;
17372;SDS011;8803;48.116;11.590;2022-12-07T02:48:47;7.17;;;6.43;;
17372;SDS011;8803;48.116;11.590;2022-12-07T02:51:02;7.60;;;6.57;;
17372;SDS011;8803;48.116;11.590;2022-12-07T02:53:27;6.63;;;6.00;;
17372;SDS011;8803;48.116;11.590;2022-12-07T02:55:39;7.23;;;6.23;;
17372;SDS011;8803;48.116;11.590;2022-12-07T02:57:51;7.83;;;6.70;;
17372;SDS011;8803;48.116;11.590;2022-12-07T03:00:05;7.27;;;6.27;;
17372;SDS011;8803;48.116;11.590;2022-12-07T03:02:13;8.43;;;6.50;;
17372;SDS011;8803;48.116;11.590;2022-12-07T03:04:22;9.07;;;7.27;;
17372;SDS011;8803;48.116;11.590;2022-12-07T03:06:37;7.50;;;6.80;;
17372;SDS011;8803;48.116;11.590;2022-12-07T03:10:56;7.00;;;6.07;;
17372;SDS011;8803;48.116;11.590;2022-12-07T03:13:04;7.10;;;6.40;;
17372;SDS011;8803;48.116;11.590;2022-12-07T03:15:18;9.43;;;7.50;;
17372;SDS011;8803;48.116;11.590;2022-12-07T03:17:25;8.23;;;6.53;;
17372;SDS011;8803;48.116;11.590;2022-12-07T03:19:31;8.13;;;6.77;;
17372;SDS011;8803;48.116;11.590;2022-12-07T03:21:47;8.13;;;7.30;;
17372;SDS011;8803;48.116;11.590;2022-12-07T03:26:05;8.93;;;7.47;;
17372;SDS011;8803;48.116;11.590;2022-12-07T03:28:12;7.77;;;6.97;;
17372;SDS011;8803;48.116;11.590;2022-12-07T03:30:20;7.97;;;6.80;;
17372;SDS011;8803;48.116;11.590;2022-12-07T03:32:35;8.10;;;6.40;;
17372;SDS011;8803;48.116;11.590;2022-12-07T03:34:42;7.13;;;6.43;;
17372;SDS011;8803;48.116;11.590;2022-12-07T03:36:57;7.67;;;6.83;;
17372;SDS011;8803;48.116;11.590;2022-12-07T03:39:03;7.43;;;6.63;;
17372;SDS011;8803;48.116;11.590;2022-12-07T03:41:11;7.73;;;6.97;;
17372;SDS011;8803;48.116;11.590;2022-12-07T03:43:24;8.13;;;7.27;;
17372;SDS011;8803;48.116;11.590;2022-12-07T03:45:31;7.87;;;7.07;;
17372;SDS011;8803;48.116;11.590;2022-12-07T03:47:38;7.80;;;7.00;;
17372;SDS011;8803;48.116;11.590;2022-12-07T03:49:53;7.63;;;6.80;;
17372;SDS011;8803;48.116;11.590;2022-12-07T03:52:08;7.83;;;7.03;;
17372;SDS011;8803;48.116;11.590;2022-12-07T03:54:17;7.47;;;6.67;;
17372;SDS011;8803;48.116;11.590;2022-12-07T03:56:30;7.83;;;6.93;;
17372;SDS011;8803;48.116;11.590;2022-12-07T03:58:35;7.87;;;6.50;;
17372;SDS011;8803;48.116;11.590;2022-12-07T04:02:52;8.17;;;7.37;;
17372;SDS011;8803;48.116;11.590;2022-12-07T04:04:56;7.90;;;7.00;;
17372;SDS011;8803;48.116;11.590;2022-12-07T04:07:00;7.50;;;6.80;;
17372;SDS011;8803;48.116;11.590;2022-12-07T04:09:04;8.70;;;7.33;;
17372;SDS011;8803;48.116;11.590;2022-12-07T04:11:08;7.57;;;6.77;;
17372;SDS011;8803;48.116;11.590;2022-12-07T04:13:20;8.63;;;7.50;;
17372;SDS011;8803;48.116;11.590;2022-12-07T04:15:24;7.30;;;6.60;;
17372;SDS011;8803;48.116;11.590;2022-12-07T04:17:37;7.87;;;6.77;;
17372;SDS011;8803;48.116;11.590;2022-12-07T04:19:41;8.17;;;7.30;;
17372;SDS011;8803;48.116;11.590;2022-12-07T04:21:44;7.63;;;6.83;;
17372;SDS011;8803;48.116;11.590;2022-12-07T04:23:57;8.27;;;7.47;;
17372;SDS011;8803;48.116;11.590;2022-12-07T04:26:01;7.80;;;7.00;;
17372;SDS011;8803;48.116;11.590;2022-12-07T04:28:04;8.20;;;7.23;;
17372;SDS011;8803;48.116;11.590;2022-12-07T04:32:23;8.67;;;7.77;;
17372;SDS011;8803;48.116;11.590;2022-12-07T04:34:27;9.57;;;8.17;;
17372;SDS011;8803;48.116;11.590;2022-12-07T04:36:42;8.40;;;7.60;;
17372;SDS011;8803;48.116;11.590;2022-12-07T04:38:46;10.07;;;8.60;;
17372;SDS011;8803;48.116;11.590;2022-12-07T04:40:50;9.63;;;8.03;;
17372;SDS011;8803;48.116;11.590;2022-12-07T04:42:54;8.63;;;7.80;;
17372;SDS011;8803;48.116;11.590;2022-12-07T04:45:07;8.37;;;7.57;;
17372;SDS011;8803;48.116;11.590;2022-12-07T04:47:12;8.87;;;7.97;;
17372;SDS011;8803;48.116;11.590;2022-12-07T04:49:24;8.00;;;7.20;;
17372;SDS011;8803;48.116;11.590;2022-12-07T04:53:40;9.30;;;8.30;;
17372;SDS011;8803;48.116;11.590;2022-12-07T04:55:44;9.50;;;7.63;;
17372;SDS011;8803;48.116;11.590;2022-12-07T04:57:48;8.67;;;7.73;;
17372;SDS011;8803;48.116;11.590;2022-12-07T04:59:51;8.63;;;7.73;;
17372;SDS011;8803;48.116;11.590;2022-12-07T05:01:55;8.30;;;7.50;;
17372;SDS011;8803;48.116;11.590;2022-12-07T05:04:08;8.70;;;7.70;;
17372;SDS011;8803;48.116;11.590;2022-12-07T05:06:12;9.47;;;8.27;;
17372;SDS011;8803;48.116;11.590;2022-12-07T05:08:28;10.20;;;8.93;;
17372;SDS011;8803;48.116;11.590;2022-12-07T05:10:32;9.50;;;8.10;;
17372;SDS011;8803;48.116;11.590;2022-12-07T05:12:47;9.00;;;8.10;;
17372;SDS011;8803;48.116;11.590;2022-12-07T05:14:51;8.60;;;7.70;;
17372;SDS011;8803;48.116;11.590;2022-12-07T05:16:54;10.27;;;8.33;;
17372;SDS011;8803;48.116;11.590;2022-12-07T05:18:58;9.63;;;7.83;;
17372;SDS011;8803;48.116;11.590;2022-12-07T05:21:02;8.17;;;7.30;;
17372;SDS011;8803;48.116;11.590;2022-12-07T05:23:18;10.27;;;7.80;;
17372;SDS011;8803;48.116;11.590;2022-12-07T05:25:21;8.87;;;7.60;;
17372;SDS011;8803;48.116;11.590;2022-12-07T05:27:25;8.43;;;7.53;;
17372;SDS011;8803;48.116;11.590;2022-12-07T05:29:29;8.73;;;7.83;;
17372;SDS011;8803;48.116;11.590;2022-12-07T05:31:33;8.10;;;7.30;;
17372;SDS011;8803;48.116;11.590;2022-12-07T05:33:45;9.33;;;7.90;;
17372;SDS011;8803;48.116;11.590;2022-12-07T05:35:50;8.37;;;7.47;;
17372;SDS011;8803;48.116;11.590;2022-12-07T05:37:54;9.33;;;8.07;;
17372;SDS011;8803;48.116;11.590;2022-12-07T05:40:11;8.70;;;7.70;;
17372;SDS011;8803;48.116;11.590;2022-12-07T05:42:16;8.73;;;7.40;;
17372;SDS011;8803;48.116;11.590;2022-12-07T05:44:32;9.80;;;7.83;;
17372;SDS011;8803;48.116;11.590;2022-12-07T05:46:35;8.33;;;7.43;;
17372;SDS011;8803;48.116;11.590;2022-12-07T05:48:39;7.60;;;6.90;;
17372;SDS011;8803;48.116;11.590;2022-12-07T05:50:43;8.40;;;7.43;;
17372;SDS011;8803;48.116;11.590;2022-12-07T05:52:57;9.70;;;8.20;;
17372;SDS011;8803;48.116;11.590;2022-12-07T05:55:01;9.33;;;8.10;;
17372;SDS011;8803;48.116;11.590;2022-12-07T05:57:05;14.10;;;11.10;;
17372;SDS011;8803;48.116;11.590;2022-12-07T05:59:09;14.73;;;12.63;;
17372;SDS011;8803;48.116;11.590;2022-12-07T06:01:25;12.37;;;10.83;;
17372;SDS011;8803;48.116;11.590;2022-12-07T06:03:38;10.70;;;8.73;;
17372;SDS011;8803;48.116;11.590;2022-12-07T06:05:42;15.60;;;12.83;;
17372;SDS011;8803;48.116;11.590;2022-12-07T06:07:55;16.30;;;12.33;;
17372;SDS011;8803;48.116;11.590;2022-12-07T06:09:58;13.63;;;11.20;;
17372;SDS011;8803;48.116;11.590;2022-12-07T06:12:03;11.43;;;10.23;;
17372;SDS011;8803;48.116;11.590;2022-12-07T06:14:15;9.87;;;8.87;;
17372;SDS011;8803;48.116;11.590;2022-12-07T06:16:19;9.43;;;8.43;;
17372;SDS011;8803;48.116;11.590;2022-12-07T06:18:23;9.67;;;8.67;;
17372;SDS011;8803;48.116;11.590;2022-12-07T06:20:27;9.07;;;8.17;;
17372;SDS011;8803;48.116;11.590;2022-12-07T06:22:39;9.27;;;8.03;;
17372;SDS011;8803;48.116;11.590;2022-12-07T06:24:43;10.23;;;9.00;;
17372;SDS011;8803;48.116;11.590;2022-12-07T06:26:47;10.77;;;8.80;;
17372;SDS011;8803;48.116;11.590;2022-12-07T06:28:50;10.40;;;8.87;;
17372;SDS011;8803;48.116;11.590;2022-12-07T06:33:08;10.17;;;9.10;;
17372;SDS011;8803;48.116;11.590;2022-12-07T06:35:12;12.70;;;9.30;;
17372;SDS011;8803;48.116;11.590;2022-12-07T06:37:16;9.80;;;8.63;;
17372;SDS011;8803;48.116;11.590;2022-12-07T06:39:20;10.10;;;9.07;;
17372;SDS011;8803;48.116;11.590;2022-12-07T06:41:26;9.87;;;8.53;;
17372;SDS011;8803;48.116;11.590;2022-12-07T06:43:38;10.30;;;9.13;;
17372;SDS011;8803;48.116;11.590;2022-12-07T06:45:44;8.87;;;7.80;;
17372;SDS011;8803;48.116;11.590;2022-12-07T06:47:56;10.17;;;8.77;;
17372;SDS011;8803;48.116;11.590;2022-12-07T06:50:00;10.50;;;9.00;;
17372;SDS011;8803;48.116;11.590;2022-12-07T06:52:14;10.63;;;9.17;;
17372;SDS011;8803;48.116;11.590;2022-12-07T06:54:18;10.20;;;9.07;;
17372;SDS011;8803;48.116;11.590;2022-12-07T06:56:22;9.33;;;8.30;;
17372;SDS011;8803;48.116;11.590;2022-12-07T06:58:26;9.00;;;8.10;;
17372;SDS011;8803;48.116;11.590;2022-12-07T07:02:41;9.50;;;8.50;;
17372;SDS011;8803;48.116;11.590;2022-12-07T07:04:44;10.30;;;9.30;;
17372;SDS011;8803;48.116;11.590;2022-12-07T07:06:48;9.00;;;8.10;;
17372;SDS011;8803;48.116;11.590;2022-12-07T07:08:52;10.40;;;9.10;;
17372;SDS011;8803;48.116;11.590;2022-12-07T07:10:56;9.70;;;8.67;;
17372;SDS011;8803;48.116;11.590;2022-12-07T07:13:08;9.33;;;8.40;;
17372;SDS011;8803;48.116;11.590;2022-12-07T07:15:12;9.13;;;8.23;;
17372;SDS011;8803;48.116;11.590;2022-12-07T07:17:16;9.00;;;8.10;;
17372;SDS011;8803;48.116;11.590;2022-12-07T07:19:20;10.33;;;9.23;;
17372;SDS011;8803;48.116;11.590;2022-12-07T07:21:24;9.80;;;8.80;;
17372;SDS011;8803;48.116;11.590;2022-12-07T07:23:36;9.93;;;8.93;;
17372;SDS011;8803;48.116;11.590;2022-12-07T07:25:40;9.77;;;8.60;;
17372;SDS011;8803;48.116;11.590;2022-12-07T07:27:44;10.30;;;9.20;;
17372;SDS011;8803;48.116;11.590;2022-12-07T07:29:56;10.50;;;8.63;;
17372;SDS011;8803;48.116;11.590;2022-12-07T07:32:00;9.93;;;8.63;;
17372;SDS011;8803;48.116;11.590;2022-12-07T07:34:04;10.00;;;9.00;;
17372;SDS011;8803;48.116;11.590;2022-12-07T07:36:17;8.73;;;7.83;;
17372;SDS011;8803;48.116;11.590;2022-12-07T07:38:20;9.53;;;8.63;;
17372;SDS011;8803;48.116;11.590;2022-12-07T07:40:24;10.10;;;9.10;;
17372;SDS011;8803;48.116;11.590;2022-12-07T07:42:37;9.87;;;8.43;;
17372;SDS011;8803;48.116;11.590;2022-12-07T07:44:41;10.60;;;8.63;;
17372;SDS011;8803;48.116;11.590;2022-12-07T07:46:44;9.37;;;8.47;;
17372;SDS011;8803;48.116;11.590;2022-12-07T07:48:57;10.50;;;8.50;;
17372;SDS011;8803;48.116;11.590;2022-12-07T07:51:01;9.40;;;8.40;;
17372;SDS011;8803;48.116;11.590;2022-12-07T07:53:19;8.87;;;7.83;;
17372;SDS011;8803;48.116;11.590;2022-12-07T07:55:31;9.23;;;8.23;;
17372;SDS011;8803;48.116;11.590;2022-12-07T07:57:35;9.13;;;8.23;;
17372;SDS011;8803;48.116;11.590;2022-12-07T07:59:39;9.53;;;8.30;;
17372;SDS011;8803;48.116;11.590;2022-12-07T08:01:43;9.70;;;8.20;;
17372;SDS011;8803;48.116;11.590;2022-12-07T08:03:56;9.50;;;8.53;;
17372;SDS011;8803;48.116;11.590;2022-12-07T08:05:59;10.93;;;9.67;;
17372;SDS011;8803;48.116;11.590;2022-12-07T08:08:05;10.93;;;9.20;;
17372;SDS011;8803;48.116;11.590;2022-12-07T08:10:09;11.10;;;8.90;;
17372;SDS011;8803;48.116;11.590;2022-12-07T08:12:24;10.00;;;9.00;;
17372;SDS011;8803;48.116;11.590;2022-12-07T08:14:28;9.20;;;8.07;;
17372;SDS011;8803;48.116;11.590;2022-12-07T08:16:32;9.53;;;8.47;;
17372;SDS011;8803;48.116;11.590;2022-12-07T08:18:44;10.67;;;8.80;;
17372;SDS011;8803;48.116;11.590;2022-12-07T08:20:48;8.67;;;7.80;;
17372;SDS011;8803;48.116;11.590;2022-12-07T08:22:52;10.27;;;8.70;;
17372;SDS011;8803;48.116;11.590;2022-12-07T08:25:08;11.13;;;8.60;;
17372;SDS011;8803;48.116;11.590;2022-12-07T08:27:11;10.40;;;8.97;;
17372;SDS011;8803;48.116;11.590;2022-12-07T08:29:15;11.63;;;9.27;;
17372;SDS011;8803;48.116;11.590;2022-12-07T08:31:19;10.67;;;9.10;;
17372;SDS011;8803;48.116;11.590;2022-12-07T08:33:34;9.83;;;8.80;;
17372;SDS011;8803;48.116;11.590;2022-12-07T08:35:38;10.80;;;9.43;;
17372;SDS011;8803;48.116;11.590;2022-12-07T08:37:42;10.90;;;9.77;;
17372;SDS011;8803;48.116;11.590;2022-12-07T08:41:58;10.50;;;8.83;;
17372;SDS011;8803;48.116;11.590;2022-12-07T08:44:02;10.50;;;9.37;;
17372;SDS011;8803;48.116;11.590;2022-12-07T08:46:16;10.20;;;9.20;;
17372;SDS011;8803;48.116;11.590;2022-12-07T08:48:22;10.13;;;9.00;;
17372;SDS011;8803;48.116;11.590;2022-12-07T08:52:37;10.43;;;9.23;;
17372;SDS011;8803;48.116;11.590;2022-12-07T08:54:42;11.10;;;9.87;;
17372;SDS011;8803;48.116;11.590;2022-12-07T08:56:47;10.80;;;9.67;;
17372;SDS011;8803;48.116;11.590;2022-12-07T08:59:00;11.40;;;9.30;;
17372;SDS011;8803;48.116;11.590;2022-12-07T09:03:16;10.90;;;9.30;;
17372;SDS011;8803;48.116;11.590;2022-12-07T09:05:19;12.07;;;9.53;;
17372;SDS011;8803;48.116;11.590;2022-12-07T09:07:24;11.03;;;9.83;;
17372;SDS011;8803;48.116;11.590;2022-12-07T09:09:28;9.60;;;8.60;;
17372;SDS011;8803;48.116;11.590;2022-12-07T09:11:32;9.87;;;8.97;;
17372;SDS011;8803;48.116;11.590;2022-12-07T09:13:44;9.77;;;8.70;;
17372;SDS011;8803;48.116;11.590;2022-12-07T09:15:48;9.97;;;8.53;;
17372;SDS011;8803;48.116;11.590;2022-12-07T09:17:52;10.47;;;9.33;;
17372;SDS011;8803;48.116;11.590;2022-12-07T09:19:56;11.43;;;10.23;;
17372;SDS011;8803;48.116;11.590;2022-12-07T09:22:09;10.37;;;9.00;;
17372;SDS011;8803;48.116;11.590;2022-12-07T09:24:12;12.23;;;10.17;;
17372;SDS011;8803;48.116;11.590;2022-12-07T09:26:16;11.07;;;9.97;;
17372;SDS011;8803;48.116;11.590;2022-12-07T09:28:20;11.17;;;9.90;;
17372;SDS011;8803;48.116;11.590;2022-12-07T09:30:24;10.73;;;9.20;;
17372;SDS011;8803;48.116;11.590;2022-12-07T09:32:38;11.17;;;9.60;;
17372;SDS011;8803;48.116;11.590;2022-12-07T09:34:42;11.73;;;10.20;;
17372;SDS011;8803;48.116;11.590;2022-12-07T09:36:45;12.13;;;10.40;;
17372;SDS011;8803;48.116;11.590;2022-12-07T09:38:49;10.60;;;9.50;;
17372;SDS011;8803;48.116;11.590;2022-12-07T09:40:54;10.77;;;9.63;;
17372;SDS011;8803;48.116;11.590;2022-12-07T09:43:10;10.93;;;9.70;;
17372;SDS011;8803;48.116;11.590;2022-12-07T09:45:16;10.33;;;9.23;;
17372;SDS011;8803;48.116;11.590;2022-12-07T09:47:30;11.37;;;9.47;;
17372;SDS011;8803;48.116;11.590;2022-12-07T09:49:35;10.33;;;8.60;;
17372;SDS011;8803;48.116;11.590;2022-12-07T09:51:39;10.07;;;8.83;;
17372;SDS011;8803;48.116;11.590;2022-12-07T09:53:52;10.23;;;8.63;;
17372;SDS011;8803;48.116;11.590;2022-12-07T09:55:58;10.10;;;8.93;;
17372;SDS011;8803;48.116;11.590;2022-12-07T09:58:12;8.87;;;7.97;;
17372;SDS011;8803;48.116;11.590;2022-12-07T10:00:22;8.83;;;7.93;;
17372;SDS011;8803;48.116;11.590;2022-12-07T10:02:33;9.10;;;8.07;;
17372;SDS011;8803;48.116;11.590;2022-12-07T10:04:46;10.00;;;8.50;;
17372;SDS011;8803;48.116;11.590;2022-12-07T10:06:51;9.00;;;8.10;;
17372;SDS011;8803;48.116;11.590;2022-12-07T10:08:54;10.13;;;8.63;;
17372;SDS011;8803;48.116;11.590;2022-12-07T10:10:59;9.43;;;8.43;;
17372;SDS011;8803;48.116;11.590;2022-12-07T10:13:05;9.70;;;8.37;;
17372;SDS011;8803;48.116;11.590;2022-12-07T10:15:18;9.33;;;8.33;;
17372;SDS011;8803;48.116;11.590;2022-12-07T10:17:30;8.47;;;7.63;;
17372;SDS011;8803;48.116;11.590;2022-12-07T10:19:36;8.13;;;7.33;;
17372;SDS011;8803;48.116;11.590;2022-12-07T10:21:40;11.37;;;8.80;;
17372;SDS011;8803;48.116;11.590;2022-12-07T10:24:01;10.03;;;8.77;;
17372;SDS011;8803;48.116;11.590;2022-12-07T10:26:20;9.50;;;8.20;;
17372;SDS011;8803;48.116;11.590;2022-12-07T10:28:34;9.90;;;8.40;;
17372;SDS011;8803;48.116;11.590;2022-12-07T10:30:49;9.43;;;8.43;;
17372;SDS011;8803;48.116;11.590;2022-12-07T10:32:57;9.13;;;8.17;;
17372;SDS011;8803;48.116;11.590;2022-12-07T10:37:48;8.40;;;7.60;;
17372;SDS011;8803;48.116;11.590;2022-12-07T10:39:53;8.20;;;7.40;;
17372;SDS011;8803;48.116;11.590;2022-12-07T10:41:59;8.20;;;7.17;;
17372;SDS011;8803;48.116;11.590;2022-12-07T10:44:20;8.20;;;7.20;;
17372;SDS011;8803;48.116;11.590;2022-12-07T10:52:20;6.80;;;6.10;;
17372;SDS011;8803;48.116;11.590;2022-12-07T10:54:29;7.43;;;6.47;;
17372;SDS011;8803;48.116;11.590;2022-12-07T10:56:45;7.87;;;6.90;;
17372;SDS011;8803;48.116;11.590;2022-12-07T10:59:07;7.57;;;6.77;;
17372;SDS011;8803;48.116;11.590;2022-12-07T11:01:33;7.13;;;6.37;;
17372;SDS011;8803;48.116;11.590;2022-12-07T11:03:56;8.57;;;7.03;;
17372;SDS011;8803;48.116;11.590;2022-12-07T11:06:15;7.27;;;6.57;;
17372;SDS011;8803;48.116;11.590;2022-12-07T11:08:36;7.37;;;6.13;;
17372;SDS011;8803;48.116;11.590;2022-12-07T11:10:44;6.73;;;6.03;;
17372;SDS011;8803;48.116;11.590;2022-12-07T11:13:08;7.90;;;7.10;;
17372;SDS011;8803;48.116;11.590;2022-12-07T11:15:17;9.50;;;7.30;;
17372;SDS011;8803;48.116;11.590;2022-12-07T11:17:25;7.10;;;6.27;;
17372;SDS011;8803;48.116;11.590;2022-12-07T11:19:34;9.30;;;6.80;;
17372;SDS011;8803;48.116;11.590;2022-12-07T11:21:54;6.60;;;5.60;;
17372;SDS011;8803;48.116;11.590;2022-12-07T11:24:01;6.80;;;6.20;;
17372;SDS011;8803;48.116;11.590;2022-12-07T11:26:10;6.97;;;6.27;;
17372;SDS011;8803;48.116;11.590;2022-12-07T11:28:26;6.87;;;6.17;;
17372;SDS011;8803;48.116;11.590;2022-12-07T11:30:36;7.07;;;6.37;;
17372;SDS011;8803;48.116;11.590;2022-12-07T11:32:55;8.83;;;7.10;;
17372;SDS011;8803;48.116;11.590;2022-12-07T11:35:04;9.80;;;7.87;;
17372;SDS011;8803;48.116;11.590;2022-12-07T11:37:13;7.73;;;6.83;;
17372;SDS011;8803;48.116;11.590;2022-12-07T11:39:20;6.90;;;6.20;;
17372;SDS011;8803;48.116;11.590;2022-12-07T11:41:28;7.80;;;7.00;;
17372;SDS011;8803;48.116;11.590;2022-12-07T11:43:50;6.40;;;5.43;;
17372;SDS011;8803;48.116;11.590;2022-12-07T11:45:59;6.20;;;5.57;;
17372;SDS011;8803;48.116;11.590;2022-12-07T11:48:09;6.77;;;5.50;;
17372;SDS011;8803;48.116;11.590;2022-12-07T11:50:25;6.27;;;5.67;;
17372;SDS011;8803;48.116;11.590;2022-12-07T11:52:32;6.97;;;5.70;;
17372;SDS011;8803;48.116;11.590;2022-12-07T11:54:47;6.10;;;5.40;;
17372;SDS011;8803;48.116;11.590;2022-12-07T11:56:54;5.80;;;5.07;;
17372;SDS011;8803;48.116;11.590;2022-12-07T11:59:02;5.67;;;5.00;;
17372;SDS011;8803;48.116;11.590;2022-12-07T12:01:22;6.27;;;5.40;;
17372;SDS011;8803;48.116;11.590;2022-12-07T12:03:30;6.37;;;5.67;;
17372;SDS011;8803;48.116;11.590;2022-12-07T12:05:42;5.90;;;5.30;;
17372;SDS011;8803;48.116;11.590;2022-12-07T12:07:47;6.60;;;5.90;;
17372;SDS011;8803;48.116;11.590;2022-12-07T12:10:02;5.90;;;5.13;;
17372;SDS011;8803;48.116;11.590;2022-12-07T12:12:12;5.83;;;5.10;;
17372;SDS011;8803;48.116;11.590;2022-12-07T12:14:37;5.93;;;5.13;;
17372;SDS011;8803;48.116;11.590;2022-12-07T12:17:01;7.03;;;5.07;;
17372;SDS011;8803;48.116;11.590;2022-12-07T12:19:22;5.17;;;4.50;;
17372;SDS011;8803;48.116;11.590;2022-12-07T12:21:40;5.07;;;4.57;;
17372;SDS011;8803;48.116;11.590;2022-12-07T12:25:59;5.53;;;4.87;;
17372;SDS011;8803;48.116;11.590;2022-12-07T12:28:15;5.23;;;4.73;;
17372;SDS011;8803;48.116;11.590;2022-12-07T12:30:33;6.87;;;6.00;;
17372;SDS011;8803;48.116;11.590;2022-12-07T12:32:40;7.73;;;6.33;;
17372;SDS011;8803;48.116;11.590;2022-12-07T12:35:01;6.50;;;5.63;;
17372;SDS011;8803;48.116;11.590;2022-12-07T12:45:05;7.03;;;6.20;;
17372;SDS011;8803;48.116;11.590;2022-12-07T12:50:15;6.47;;;5.77;;
17372;SDS011;8803;48.116;11.590;2022-12-07T12:55:12;7.53;;;6.30;;
17372;SDS011;8803;48.116;11.590;2022-12-07T12:57:27;7.53;;;6.50;;
17372;SDS011;8803;48.116;11.590;2022-12-07T12:59:33;7.60;;;6.67;;
17372;SDS011;8803;48.116;11.590;2022-12-07T13:01:39;7.17;;;6.47;;
17372;SDS011;8803;48.116;11.590;2022-12-07T13:03:54;10.97;;;6.90;;
17372;SDS011;8803;48.116;11.590;2022-12-07T13:06:17;9.87;;;6.60;;
17372;SDS011;8803;48.116;11.590;2022-12-07T13:08:24;7.57;;;6.73;;
17372;SDS011;8803;48.116;11.590;2022-12-07T13:12:56;7.07;;;6.33;;
17372;SDS011;8803;48.116;11.590;2022-12-07T13:15:02;7.50;;;6.70;;
17372;SDS011;8803;48.116;11.590;2022-12-07T13:17:10;7.37;;;6.67;;
17372;SDS011;8803;48.116;11.590;2022-12-07T13:24:39;8.53;;;7.17;;
17372;SDS011;8803;48.116;11.590;2022-12-07T13:26:43;8.00;;;7.20;;
17372;SDS011;8803;48.116;11.590;2022-12-07T13:29:04;7.53;;;6.83;;
17372;SDS011;8803;48.116;11.590;2022-12-07T13:31:18;7.93;;;7.13;;
17372;SDS011;8803;48.116;11.590;2022-12-07T13:33:35;7.93;;;7.07;;
17372;SDS011;8803;48.116;11.590;2022-12-07T13:35:40;7.80;;;6.97;;
17372;SDS011;8803;48.116;11.590;2022-12-07T13:37:44;11.07;;;7.83;;
17372;SDS011;8803;48.116;11.590;2022-12-07T13:39:49;7.40;;;6.47;;
17372;SDS011;8803;48.116;11.590;2022-12-07T13:44:08;7.83;;;6.53;;
17372;SDS011;8803;48.116;11.590;2022-12-07T13:46:14;8.77;;;6.87;;
17372;SDS011;8803;48.116;11.590;2022-12-07T13:48:21;8.00;;;6.53;;
17372;SDS011;8803;48.116;11.590;2022-12-07T13:50:42;8.67;;;7.60;;
17372;SDS011;8803;48.116;11.590;2022-12-07T13:55:05;7.80;;;7.00;;
17372;SDS011;8803;48.116;11.590;2022-12-07T13:57:10;7.83;;;6.70;;
17372;SDS011;8803;48.116;11.590;2022-12-07T13:59:14;8.70;;;7.60;;
17372;SDS011;8803;48.116;11.590;2022-12-07T14:01:20;7.73;;;6.83;;
17372;SDS011;8803;48.116;11.590;2022-12-07T14:03:33;6.80;;;6.10;;